Time;durP1;ratioP1;P1;durP2;ratioP2;P2;SDS_P1;SDS_P2;PMS_P1;PMS_P2;Temp;Humidity;BMP_temperature;BMP_pressure;BME280_temperature;BME280_humidity;BME280_pressure;Samples;Min_cycle;Max_cycle;Signal;HPM_P1;HPM_P2
2023/03/29 00:01:24;;;;;;;2.17;1.20;;;;;;;6.07;54.86;101117.88;5057602;28;20206;-84
2023/03/29 00:03:50;;;;;;;3.37;1.07;;;;;;;6.08;54.60;101119.63;5058575;28;20221;-84
2023/03/29 00:06:20;;;;;;;6.10;1.53;;;;;;;6.07;54.22;101117.88;5055888;28;20205;-84
2023/03/29 00:08:52;;;;;;;3.50;1.27;;;;;;;6.06;54.59;101116.16;5059390;28;20227;-83
2023/03/29 00:11:20;;;;;;;4.70;1.30;;;;;;;6.09;54.60;101110.72;5055946;28;20202;-83
2023/03/29 00:13:47;;;;;;;1.87;1.30;;;;;;;6.07;54.17;101109.97;5055205;28;20641;-83
2023/03/29 00:16:13;;;;;;;3.27;1.20;;;;;;;6.08;54.54;101105.53;5058525;28;20201;-84
2023/03/29 00:18:40;;;;;;;6.70;1.50;;;;;;;6.07;54.16;101102.03;5059739;28;20221;-83
2023/03/29 00:21:07;;;;;;;3.43;1.37;;;;;;;6.08;54.00;101101.09;5058097;28;20213;-85
2023/03/29 00:23:33;;;;;;;3.70;1.40;;;;;;;6.07;54.20;101096.75;5053319;28;20229;-83
2023/03/29 00:26:02;;;;;;;2.13;1.20;;;;;;;6.05;54.05;101090.63;5061164;28;20204;-83
2023/03/29 00:28:29;;;;;;;4.43;1.50;;;;;;;6.05;54.21;101095.94;5064751;28;20447;-83
2023/03/29 00:31:04;;;;;;;2.90;1.60;;;;;;;6.06;54.44;101099.44;5054942;28;20233;-83
2023/03/29 00:33:31;;;;;;;2.93;1.37;;;;;;;6.06;54.57;101083.56;5058723;28;20231;-84
2023/03/29 00:35:57;;;;;;;5.73;1.50;;;;;;;6.05;54.47;101082.72;5061212;28;20202;-84
2023/03/29 00:38:24;;;;;;;2.57;1.30;;;;;;;6.07;54.61;101086.16;5051645;28;20226;-84
2023/03/29 00:40:51;;;;;;;4.53;1.60;;;;;;;6.05;54.85;101080.06;5056474;28;20630;-84
2023/03/29 00:43:19;;;;;;;3.73;1.30;;;;;;;6.03;54.62;101081.03;5057966;28;20717;-85
2023/03/29 00:45:45;;;;;;;6.03;1.40;;;;;;;6.02;54.58;101079.31;5056274;28;20784;-83
2023/03/29 00:48:15;;;;;;;2.90;1.33;;;;;;;6.03;54.86;101079.25;5052553;28;20577;-84
2023/03/29 00:50:46;;;;;;;4.33;1.40;;;;;;;6.03;54.72;101073.09;5056743;28;20197;-84
2023/03/29 00:53:17;;;;;;;3.57;1.33;;;;;;;6.06;54.90;101073.84;5059804;28;20229;-83
2023/03/29 00:55:51;;;;;;;4.30;1.63;;;;;;;6.04;54.58;101070.41;5058479;28;20776;-84
2023/03/29 00:58:25;;;;;;;3.33;1.40;;;;;;;6.05;55.12;101072.13;5055464;28;20245;-83
2023/03/29 01:00:56;;;;;;;4.67;1.57;;;;;;;6.03;54.89;101068.69;5058522;28;20544;-84
2023/03/29 01:03:27;;;;;;;5.27;1.40;;;;;;;6.03;54.87;101063.41;5048655;28;20230;-84
2023/03/29 01:06:00;;;;;;;3.93;1.60;;;;;;;6.05;55.14;101055.41;5056601;28;20212;-84
2023/03/29 01:08:31;;;;;;;3.87;1.90;;;;;;;6.05;55.05;101053.63;5060227;28;20269;-83
2023/03/29 01:11:03;;;;;;;4.93;1.40;;;;;;;6.01;55.25;101044.06;5056608;28;20210;-83
2023/03/29 01:13:37;;;;;;;5.03;1.83;;;;;;;6.02;55.41;101043.16;5055457;28;20229;-83
2023/03/29 01:16:05;;;;;;;2.00;1.40;;;;;;;6.06;55.62;101036.84;5056203;28;20199;-83
2023/03/29 01:18:32;;;;;;;3.87;1.53;;;;;;;6.02;55.71;101032.59;5056192;28;20685;-84
2023/03/29 01:21:14;;;;;;;4.20;1.87;;;;;;;6.00;56.01;101029.13;5056678;28;20206;-83
2023/03/29 01:23:57;;;;;;;3.97;1.80;;;;;;;6.01;56.04;101027.34;5059475;28;20221;-83
2023/03/29 01:26:31;;;;;;;5.07;1.67;;;;;;;6.01;56.15;101025.56;5048855;28;20233;-83
2023/03/29 01:29:03;;;;;;;2.57;1.67;;;;;;;6.02;56.11;101026.44;5045096;28;20205;-83
2023/03/29 01:31:34;;;;;;;4.67;1.90;;;;;;;6.00;56.42;101020.34;5051195;28;20210;-83
2023/03/29 01:34:06;;;;;;;2.83;1.67;;;;;;;6.02;56.49;101018.50;5052810;28;20232;-83
2023/03/29 01:36:39;;;;;;;5.13;1.77;;;;;;;6.01;56.81;101022.94;5049727;28;20213;-83
2023/03/29 01:39:06;;;;;;;3.50;1.70;;;;;;;5.99;57.05;101019.47;5053802;28;20210;-83
2023/03/29 01:41:44;;;;;;;4.10;1.73;;;;;;;5.97;57.48;101016.03;5051860;28;20206;-83
2023/03/29 01:44:17;;;;;;;3.10;1.80;;;;;;;5.96;57.67;101009.00;5054653;28;20208;-84
2023/03/29 01:46:46;;;;;;;6.70;2.00;;;;;;;5.97;58.42;101005.44;5055537;28;20207;-84
2023/03/29 01:49:21;;;;;;;3.90;1.73;;;;;;;5.95;58.64;101014.34;5055134;28;20607;-84
2023/03/29 01:51:53;;;;;;;2.90;2.07;;;;;;;5.93;58.85;101014.41;5057364;28;20221;-85
2023/03/29 01:54:25;;;;;;;3.10;1.87;;;;;;;5.95;59.71;101017.00;5055965;28;20206;-84
2023/03/29 01:56:52;;;;;;;3.50;1.93;;;;;;;5.92;59.94;101010.03;5049806;28;20202;-84
2023/03/29 01:59:23;;;;;;;3.13;1.80;;;;;;;5.91;60.37;101008.34;5056336;28;20229;-84
2023/03/29 02:01:53;;;;;;;2.93;1.83;;;;;;;5.90;60.77;101006.63;5052971;28;20221;-83
2023/03/29 02:04:26;;;;;;;3.63;2.03;;;;;;;5.86;60.85;100999.69;5057129;28;20208;-84
2023/03/29 02:06:56;;;;;;;5.07;2.23;;;;;;;5.85;61.40;101006.75;5048216;28;20210;-83
2023/03/29 02:09:23;;;;;;;4.63;2.20;;;;;;;5.85;62.07;101004.13;5054206;28;20204;-84
2023/03/29 02:11:51;;;;;;;6.57;2.17;;;;;;;5.83;62.22;100999.81;5061268;28;20385;-85
2023/03/29 02:14:18;;;;;;;6.07;2.30;;;;;;;5.83;62.41;100997.16;5059532;28;20650;-84
2023/03/29 02:16:46;;;;;;;5.60;2.37;;;;;;;5.83;63.28;100990.09;5051766;28;20931;-84
2023/03/29 02:19:14;;;;;;;4.70;2.20;;;;;;;5.83;63.23;100989.22;5060057;28;20229;-83
2023/03/29 02:21:47;;;;;;;6.83;2.20;;;;;;;5.81;63.75;100981.34;5059868;28;20209;-84
2023/03/29 02:24:17;;;;;;;6.10;2.33;;;;;;;5.79;63.83;100980.56;5063293;28;20202;-85
2023/03/29 02:26:44;;;;;;;5.07;2.37;;;;;;;5.78;63.69;100983.25;5063940;28;20217;-84
2023/03/29 02:29:11;;;;;;;4.80;2.57;;;;;;;5.76;64.46;100979.81;5055318;28;20624;-84
2023/03/29 02:31:42;;;;;;;3.30;2.43;;;;;;;5.74;65.39;100979.00;5060823;28;20231;-84
2023/03/29 02:34:19;;;;;;;4.73;2.50;;;;;;;5.72;64.99;100980.88;5060427;28;20237;-84
2023/03/29 02:36:49;;;;;;;2.83;1.83;;;;;;;5.71;65.78;100974.72;5055159;28;20205;-84
2023/03/29 02:39:18;;;;;;;4.47;2.90;;;;;;;5.72;66.59;100972.94;5060121;28;20217;-84
2023/03/29 02:41:48;;;;;;;4.50;2.53;;;;;;;5.72;66.79;100975.56;5060517;28;20213;-83
2023/03/29 02:44:19;;;;;;;4.30;2.57;;;;;;;5.71;67.24;100966.78;5065284;28;20202;-85
2023/03/29 02:46:49;;;;;;;3.93;2.63;;;;;;;5.69;67.50;100978.34;5060143;28;20552;-84
2023/03/29 02:49:18;;;;;;;3.63;2.70;;;;;;;5.66;67.74;100971.38;5053649;28;20214;-84
2023/03/29 02:51:46;;;;;;;5.57;2.90;;;;;;;5.65;68.83;100966.16;5063047;28;20287;-83
2023/03/29 02:54:17;;;;;;;5.00;2.87;;;;;;;5.64;69.08;100961.78;5065669;28;20209;-84
2023/03/29 02:56:45;;;;;;;5.83;3.10;;;;;;;5.61;69.56;100964.53;5058612;28;20201;-84
2023/03/29 02:59:12;;;;;;;4.00;2.87;;;;;;;5.61;70.03;100961.91;5059201;28;20312;-84
2023/03/29 03:01:43;;;;;;;5.00;3.50;;;;;;;5.58;70.48;100950.53;5061226;28;20217;-84
2023/03/29 03:04:11;;;;;;;4.53;2.97;;;;;;;5.55;71.07;100948.00;5056596;28;20701;-84
2023/03/29 03:06:40;;;;;;;4.57;3.20;;;;;;;5.52;71.31;100941.97;5060090;28;20205;-85
2023/03/29 03:09:08;;;;;;;3.80;3.00;;;;;;;5.51;72.00;100946.41;5059271;28;20213;-84
2023/03/29 03:11:35;;;;;;;6.30;3.27;;;;;;;5.50;72.39;100946.47;5053140;28;20198;-84
2023/03/29 03:14:02;;;;;;;3.90;3.00;;;;;;;5.48;72.86;100943.00;5061452;28;20236;-84
2023/03/29 03:16:28;;;;;;;5.13;3.67;;;;;;;5.46;73.36;100943.06;5061171;28;20201;-84
2023/03/29 03:18:55;;;;;;;7.90;4.67;;;;;;;5.45;73.59;100938.69;5056270;28;20217;-84
2023/03/29 03:21:21;;;;;;;5.67;3.43;;;;;;;5.44;74.32;100934.34;5057041;28;20212;-84
2023/03/29 03:23:49;;;;;;;3.97;3.07;;;;;;;5.39;74.74;100933.63;5051486;28;20225;-84
2023/03/29 03:26:17;;;;;;;4.43;2.80;;;;;;;5.37;74.84;100924.94;5051654;28;20212;-84
2023/03/29 03:28:44;;;;;;;4.00;3.20;;;;;;;5.35;75.35;100928.56;5058843;28;20300;-84
2023/03/29 03:31:11;;;;;;;4.80;3.50;;;;;;;5.33;75.37;100923.31;5057374;28;20217;-83
2023/03/29 03:33:39;;;;;;;5.07;3.70;;;;;;;5.29;76.20;100921.72;5053651;28;20214;-84
2023/03/29 03:36:07;;;;;;;4.63;3.40;;;;;;;5.28;76.55;100919.13;5058197;28;20777;-84
2023/03/29 03:38:34;;;;;;;4.57;3.00;;;;;;;5.26;76.54;100915.69;5053518;28;20693;-83
2023/03/29 03:41:02;;;;;;;4.07;3.20;;;;;;;5.25;77.25;100917.44;5055190;28;20202;-84
2023/03/29 03:43:29;;;;;;;4.10;3.33;;;;;;;5.20;77.22;100909.69;5056197;28;20221;-84
2023/03/29 03:45:55;;;;;;;4.30;3.70;;;;;;;5.17;77.80;100915.13;5058811;28;20210;-83
2023/03/29 03:48:23;;;;;;;6.77;4.13;;;;;;;5.16;77.89;100909.88;5054558;28;20208;-83
2023/03/29 03:50:51;;;;;;;3.67;3.30;;;;;;;5.15;77.73;100902.88;5056805;28;20205;-84
2023/03/29 03:53:18;;;;;;;4.37;3.37;;;;;;;5.13;78.19;100892.38;5056599;28;20286;-84
2023/03/29 03:55:47;;;;;;;4.67;3.77;;;;;;;5.14;78.61;100888.81;5058822;28;20240;-84
2023/03/29 03:58:16;;;;;;;4.10;3.57;;;;;;;5.13;78.48;100896.78;5055815;28;20600;-83
2023/03/29 04:00:43;;;;;;;4.77;3.20;;;;;;;5.11;78.54;100888.94;5057078;28;20237;-84
2023/03/29 04:03:09;;;;;;;5.00;3.23;;;;;;;5.11;78.98;100891.56;5058002;28;20720;-84
2023/03/29 04:05:39;;;;;;;3.77;3.33;;;;;;;5.11;78.85;100881.00;5061064;28;20216;-85
2023/03/29 04:08:06;;;;;;;5.73;3.23;;;;;;;5.12;79.40;100872.16;5057770;28;20330;-84
2023/03/29 04:10:33;;;;;;;4.90;3.50;;;;;;;5.11;79.28;100880.16;5057081;28;20657;-83
2023/03/29 04:13:01;;;;;;;7.47;3.17;;;;;;;5.08;79.40;100875.84;5055869;28;20707;-84
2023/03/29 04:15:30;;;;;;;5.20;2.83;;;;;;;5.08;79.39;100872.34;5057825;28;20206;-85
2023/03/29 04:17:56;;;;;;;6.03;3.47;;;;;;;5.07;79.90;100878.53;5054038;28;20228;-84
2023/03/29 04:20:23;;;;;;;5.87;3.03;;;;;;;5.05;79.63;100875.09;5064134;28;20231;-84
2023/03/29 04:22:50;;;;;;;3.80;3.40;;;;;;;5.05;79.86;100875.94;5061951;28;20225;-84
2023/03/29 04:25:17;;;;;;;6.97;3.03;;;;;;;5.03;79.89;100877.78;5059080;28;20202;-84
2023/03/29 04:27:45;;;;;;;4.47;3.53;;;;;;;5.04;79.81;100870.72;5056604;28;20311;-84
2023/03/29 04:30:12;;;;;;;4.70;3.47;;;;;;;5.02;79.76;100869.91;5056995;28;20273;-83
2023/03/29 04:32:40;;;;;;;4.13;3.43;;;;;;;5.03;80.07;100871.63;5063531;28;20229;-84
2023/03/29 04:35:07;;;;;;;4.53;3.90;;;;;;;5.01;79.95;100873.50;5064276;28;20201;-84
2023/03/29 04:37:34;;;;;;;6.07;3.53;;;;;;;5.00;80.35;100871.78;5061788;28;20732;-84
2023/03/29 04:40:00;;;;;;;7.77;3.97;;;;;;;4.99;80.43;100875.34;5058868;28;20221;-83
2023/03/29 04:42:27;;;;;;;6.27;3.87;;;;;;;4.98;80.65;100868.31;5056872;28;20256;-84
2023/03/29 04:44:53;;;;;;;5.03;4.10;;;;;;;4.98;80.79;100863.91;5057515;28;20650;-84
2023/03/29 04:47:20;;;;;;;7.17;3.83;;;;;;;4.98;80.89;100871.81;5058305;28;20320;-84
2023/03/29 04:49:48;;;;;;;5.87;3.83;;;;;;;4.98;80.39;100866.56;5059645;28;20232;-84
2023/03/29 04:52:15;;;;;;;5.40;4.13;;;;;;;4.98;80.71;100870.97;5058907;28;20226;-84
2023/03/29 04:54:41;;;;;;;5.27;4.67;;;;;;;4.96;80.86;100864.88;5056264;28;20211;-83
2023/03/29 04:57:08;;;;;;;6.17;4.10;;;;;;;4.95;80.96;100860.50;5055835;28;20205;-84
2023/03/29 04:59:35;;;;;;;6.10;5.50;;;;;;;4.96;80.92;100859.59;5056217;28;20229;-84
2023/03/29 05:02:03;;;;;;;7.50;5.20;;;;;;;4.95;81.02;100863.16;5050251;28;20230;-84
2023/03/29 05:04:31;;;;;;;6.80;5.10;;;;;;;4.95;81.00;100861.38;5052758;28;20213;-85
2023/03/29 05:07:00;;;;;;;6.20;4.60;;;;;;;4.96;81.07;100864.88;5054629;28;20240;-83
2023/03/29 05:09:26;;;;;;;7.83;6.10;;;;;;;4.95;80.91;100858.75;5055964;28;20257;-83
2023/03/29 05:11:53;;;;;;;10.07;6.70;;;;;;;4.95;81.08;100858.75;5057722;28;20220;-84
2023/03/29 05:14:20;;;;;;;7.37;5.80;;;;;;;4.96;81.13;100854.31;5049214;28;20209;-83
2023/03/29 05:16:47;;;;;;;5.87;4.87;;;;;;;4.97;80.93;100863.97;5052323;28;20217;-84
2023/03/29 05:19:13;;;;;;;7.57;4.87;;;;;;;4.97;80.95;100858.69;5052494;28;20236;-83
2023/03/29 05:21:40;;;;;;;6.47;5.30;;;;;;;4.96;80.93;100851.69;5055376;28;20197;-84
2023/03/29 05:24:08;;;;;;;7.57;5.67;;;;;;;4.97;80.89;100846.34;5058230;28;20233;-83
2023/03/29 05:26:35;;;;;;;9.83;6.37;;;;;;;4.95;81.14;100853.47;5048423;28;20625;-84
2023/03/29 05:29:01;;;;;;;8.60;5.90;;;;;;;4.95;81.49;100837.63;5052278;28;20205;-85
2023/03/29 05:31:28;;;;;;;9.13;6.30;;;;;;;4.97;81.45;100837.56;5056272;28;20733;-84
2023/03/29 05:33:55;;;;;;;9.80;5.87;;;;;;;4.97;81.30;100834.94;5052550;28;20232;-83
2023/03/29 05:36:22;;;;;;;6.63;5.53;;;;;;;4.95;81.43;100832.34;5058460;28;20205;-84
2023/03/29 05:38:48;;;;;;;7.63;5.53;;;;;;;4.92;81.60;100827.19;5064031;28;20201;-83
2023/03/29 05:41:17;;;;;;;6.80;5.30;;;;;;;4.92;81.49;100824.53;5068335;28;20193;-85
2023/03/29 05:43:44;;;;;;;6.67;4.90;;;;;;;4.94;81.85;100827.13;5063995;28;20274;-84
2023/03/29 05:46:11;;;;;;;9.60;5.33;;;;;;;4.94;81.72;100813.94;5064273;28;20205;-86
2023/03/29 05:48:37;;;;;;;5.87;5.10;;;;;;;4.95;81.62;100823.56;5064314;28;20232;-85
2023/03/29 05:51:05;;;;;;;9.23;5.33;;;;;;;4.96;81.41;100825.28;5067581;28;20658;-85
2023/03/29 05:53:32;;;;;;;6.83;5.60;;;;;;;4.99;81.80;100828.69;5064311;28;20289;-86
2023/03/29 05:55:58;;;;;;;6.43;5.73;;;;;;;4.97;81.76;100822.59;5064010;28;20295;-84
2023/03/29 05:58:27;;;;;;;8.33;6.03;;;;;;;4.99;82.35;100815.47;5059629;28;20205;-85
2023/03/29 06:00:54;;;;;;;8.77;6.63;;;;;;;5.01;81.95;100807.50;5053480;28;20233;-83
2023/03/29 06:03:24;;;;;;;9.10;5.90;;;;;;;5.01;81.76;100816.28;5052955;28;20697;-84
2023/03/29 06:05:56;;;;;;;7.10;5.70;;;;;;;5.00;81.96;100814.56;5050483;28;20217;-84
2023/03/29 06:08:23;;;;;;;8.37;6.13;;;;;;;5.00;82.62;100813.72;5052760;28;20686;-84
2023/03/29 06:10:50;;;;;;;7.97;5.33;;;;;;;5.06;82.23;100808.19;5050130;28;20202;-84
2023/03/29 06:13:17;;;;;;;6.37;5.47;;;;;;;5.07;82.28;100809.91;5050124;28;20590;-84
2023/03/29 06:15:45;;;;;;;8.80;5.03;;;;;;;5.10;82.20;100807.16;5054557;28;20275;-85
2023/03/29 06:18:11;;;;;;;5.57;4.47;;;;;;;5.12;82.37;100805.31;5055142;28;20206;-84
2023/03/29 06:20:37;;;;;;;5.50;4.63;;;;;;;5.12;82.44;100814.09;5058104;28;20225;-84
2023/03/29 06:23:04;;;;;;;6.80;4.67;;;;;;;5.14;82.22;100814.03;5056530;28;20225;-84
2023/03/29 06:25:30;;;;;;;7.13;5.27;;;;;;;5.17;82.00;100817.44;5051186;28;20205;-84
2023/03/29 06:27:57;;;;;;;10.30;5.10;;;;;;;5.24;82.17;100820.66;5052924;28;20225;-84
2023/03/29 06:30:23;;;;;;;7.80;4.87;;;;;;;5.24;82.21;100820.66;5051189;28;20198;-84
2023/03/29 06:32:51;;;;;;;5.33;4.70;;;;;;;5.31;82.11;100802.81;5051607;28;20228;-84
2023/03/29 06:35:18;;;;;;;7.07;4.20;;;;;;;5.34;81.81;100819.41;5053212;28;20549;-84
2023/03/29 06:37:49;;;;;;;7.30;4.70;;;;;;;5.36;81.72;100822.84;5051077;28;20210;-84
2023/03/29 06:40:17;;;;;;;5.30;4.20;;;;;;;5.39;81.75;100828.00;5050652;28;20699;-84
2023/03/29 06:42:44;;;;;;;8.50;4.90;;;;;;;5.45;81.59;100830.41;5049997;28;20237;-84
2023/03/29 06:45:11;;;;;;;6.03;4.57;;;;;;;5.48;81.39;100826.78;5054328;28;20213;-84
2023/03/29 06:47:38;;;;;;;6.37;4.60;;;;;;;5.54;81.61;100829.19;5052268;28;20248;-85
2023/03/29 06:50:07;;;;;;;7.87;4.80;;;;;;;5.59;81.26;100820.13;5050091;28;20201;-84
2023/03/29 06:52:34;;;;;;;6.50;4.50;;;;;;;5.66;81.14;100819.91;5050264;28;20275;-84
2023/03/29 06:55:01;;;;;;;5.27;4.37;;;;;;;5.71;81.06;100817.94;5041736;28;20225;-84
2023/03/29 06:57:28;;;;;;;7.27;4.40;;;;;;;5.74;80.88;100817.78;5043397;28;20214;-85
2023/03/29 06:59:54;;;;;;;6.27;4.70;;;;;;;5.76;80.98;100827.38;5048814;28;20222;-84
2023/03/29 07:02:21;;;;;;;7.67;4.63;;;;;;;5.80;80.78;100814.91;5043819;28;20230;-84
2023/03/29 07:04:48;;;;;;;7.23;5.00;;;;;;;5.84;80.55;100825.31;5052690;28;20206;-84
2023/03/29 07:07:19;;;;;;;8.23;4.20;;;;;;;5.93;80.31;100832.00;5050371;28;20228;-83
2023/03/29 07:09:52;;;;;;;5.30;4.10;;;;;;;5.99;79.78;100826.47;5051273;28;20305;-84
2023/03/29 07:12:19;;;;;;;5.23;4.60;;;;;;;6.04;79.49;100819.22;5048084;28;20230;-85
2023/03/29 07:14:46;;;;;;;11.67;4.57;;;;;;;6.10;79.53;100820.72;5051418;28;20224;-84
2023/03/29 07:17:13;;;;;;;6.20;4.87;;;;;;;6.15;79.47;100826.69;5048079;28;20721;-84
2023/03/29 07:19:39;;;;;;;4.67;4.17;;;;;;;6.19;79.13;100823.00;5051757;28;20222;-84
2023/03/29 07:22:06;;;;;;;5.70;4.40;;;;;;;6.23;78.83;100817.53;5050063;28;20220;-85
2023/03/29 07:24:38;;;;;;;7.40;4.50;;;;;;;6.23;78.46;100820.16;5050656;28;20249;-84
2023/03/29 07:27:04;;;;;;;6.03;3.90;;;;;;;6.31;78.23;100818.97;5052175;28;20267;-84
2023/03/29 07:29:31;;;;;;;5.10;4.10;;;;;;;6.36;77.62;100817.84;5054139;28;20268;-84
2023/03/29 07:31:57;;;;;;;5.70;3.90;;;;;;;6.40;77.60;100814.16;5054058;28;20213;-85
2023/03/29 07:34:24;;;;;;;5.10;3.93;;;;;;;6.45;77.50;100811.31;5053562;28;20540;-84
2023/03/29 07:36:50;;;;;;;6.27;3.97;;;;;;;6.53;77.51;100806.53;5051625;28;20213;-84
2023/03/29 07:39:17;;;;;;;4.43;3.93;;;;;;;6.58;77.45;100804.53;5054737;28;20206;-84
2023/03/29 07:41:45;;;;;;;7.83;4.17;;;;;;;6.63;77.10;100805.19;5053455;28;20260;-84
2023/03/29 07:44:12;;;;;;;6.07;4.00;;;;;;;6.64;76.65;100806.91;5058569;28;20232;-85
2023/03/29 07:46:41;;;;;;;5.20;3.53;;;;;;;6.73;76.12;100810.94;5052708;28;20281;-84
2023/03/29 07:49:08;;;;;;;5.33;4.00;;;;;;;6.77;75.72;100807.22;5059868;28;20212;-84
2023/03/29 07:51:35;;;;;;;5.10;3.80;;;;;;;6.83;75.85;100806.94;5053905;28;20217;-84
2023/03/29 07:54:01;;;;;;;4.70;3.60;;;;;;;6.87;75.10;100811.16;5056700;28;20236;-84
2023/03/29 07:56:29;;;;;;;5.00;3.50;;;;;;;6.89;75.33;100810.16;5055739;28;20210;-84
2023/03/29 07:58:57;;;;;;;7.30;3.50;;;;;;;6.96;74.04;100802.81;5056042;28;20198;-84
2023/03/29 08:01:24;;;;;;;6.87;4.27;;;;;;;6.99;73.80;100812.41;5056720;28;20230;-84
2023/03/29 08:03:50;;;;;;;9.37;4.70;;;;;;;7.00;74.36;100820.25;5054613;28;21412;-84
2023/03/29 08:06:17;;;;;;;6.07;3.90;;;;;;;7.03;74.42;100816.63;5056726;28;20250;-84
2023/03/29 08:08:44;;;;;;;4.17;3.77;;;;;;;7.07;73.47;100818.19;5056580;28;20211;-85
2023/03/29 08:11:10;;;;;;;4.03;3.63;;;;;;;7.13;73.07;100823.22;5053000;28;20205;-85
2023/03/29 08:13:37;;;;;;;5.17;3.50;;;;;;;7.14;73.10;100827.59;5055372;28;20228;-85
2023/03/29 08:16:05;;;;;;;8.93;4.33;;;;;;;7.17;73.33;100822.97;5053577;28;20209;-84
2023/03/29 08:18:32;;;;;;;5.43;3.43;;;;;;;7.19;72.83;100822.91;5058205;28;20201;-85
2023/03/29 08:20:59;;;;;;;6.13;4.47;;;;;;;7.21;72.52;100824.56;5053195;28;20225;-85
2023/03/29 08:23:25;;;;;;;4.93;3.97;;;;;;;7.27;72.88;100820.78;5057671;28;20229;-85
2023/03/29 08:25:52;;;;;;;7.30;3.63;;;;;;;7.30;72.16;100818.00;5058223;28;20206;-84
2023/03/29 08:28:19;;;;;;;4.93;3.90;;;;;;;7.33;71.99;100812.56;5055087;28;20666;-86
2023/03/29 08:30:46;;;;;;;4.13;3.33;;;;;;;7.35;72.28;100815.97;5054631;28;20213;-85
2023/03/29 08:33:14;;;;;;;5.10;3.53;;;;;;;7.35;72.29;100831.88;5054509;28;20592;-84
2023/03/29 08:35:41;;;;;;;6.83;3.90;;;;;;;7.36;71.87;100817.69;5054276;28;20289;-84
2023/03/29 08:38:08;;;;;;;4.63;3.37;;;;;;;7.40;71.23;100815.75;5057694;28;20197;-84
2023/03/29 08:40:35;;;;;;;5.13;4.00;;;;;;;7.41;71.47;100826.28;5055209;28;20236;-84
2023/03/29 08:43:27;;;;;;;6.03;3.57;;;;;;;7.44;71.77;100819.97;5054210;28;20813;-83
2023/03/29 08:46:07;;;;;;;4.10;3.57;;;;;;;7.49;71.57;100813.53;5053385;28;20230;-83
2023/03/29 08:48:39;;;;;;;4.47;3.87;;;;;;;7.58;71.18;100813.09;5056362;28;20193;-84
2023/03/29 08:51:14;;;;;;;6.83;4.10;;;;;;;7.61;70.98;100817.38;5057522;28;20236;-83
2023/03/29 08:53:46;;;;;;;6.40;4.50;;;;;;;7.66;71.39;100820.69;5049997;28;20217;-83
2023/03/29 08:56:20;;;;;;;5.03;3.77;;;;;;;7.72;70.97;100811.53;5049177;28;20697;-84
2023/03/29 08:58:50;;;;;;;5.70;4.00;;;;;;;7.77;71.37;100814.84;5051401;28;20225;-83
2023/03/29 09:01:16;;;;;;;5.30;4.03;;;;;;;7.79;71.12;100803.22;5056726;28;20613;-85
2023/03/29 09:03:48;;;;;;;5.97;4.10;;;;;;;7.83;71.25;100802.16;5047734;28;20288;-84
2023/03/29 09:06:21;;;;;;;5.17;3.80;;;;;;;7.89;70.94;100799.16;5050909;28;20217;-84
2023/03/29 09:08:51;;;;;;;5.30;3.80;;;;;;;8.01;70.44;100793.28;5053267;28;20197;-85
2023/03/29 09:11:31;;;;;;;5.63;4.20;;;;;;;8.09;70.40;100787.56;5059862;28;20265;-86
2023/03/29 09:14:08;;;;;;;7.10;4.43;;;;;;;8.18;69.97;100795.06;5063803;28;20229;-85
2023/03/29 09:16:42;;;;;;;8.37;5.40;;;;;;;8.22;69.09;100793.97;5069370;28;20300;-85
2023/03/29 09:19:21;;;;;;;7.43;5.00;;;;;;;8.28;70.67;100800.75;5068655;28;20214;-85
2023/03/29 09:21:54;;;;;;;5.00;4.07;;;;;;;8.34;69.65;100796.03;5063341;28;20231;-84
2023/03/29 09:24:34;;;;;;;6.63;4.33;;;;;;;8.42;69.76;100794.78;5050371;28;20255;-84
2023/03/29 09:27:05;;;;;;;6.13;3.77;;;;;;;8.46;69.59;100797.19;5055144;28;20197;-84
2023/03/29 09:30:09;;;;;;;6.33;4.23;;;;;;;8.52;69.48;100801.31;5055298;28;20193;-84
2023/03/29 09:32:43;;;;;;;5.83;3.90;;;;;;;8.56;68.90;100795.78;5041771;28;20229;-84
2023/03/29 09:35:21;;;;;;;5.37;3.43;;;;;;;8.59;69.41;100802.72;5063141;28;20219;-86
2023/03/29 09:37:50;;;;;;;5.03;3.70;;;;;;;8.61;68.86;100792.84;5060659;28;20251;-84
2023/03/29 09:40:21;;;;;;;5.40;4.03;;;;;;;8.64;68.40;100798.00;5049242;28;20231;-84
2023/03/29 09:42:51;;;;;;;6.20;3.90;;;;;;;8.65;68.66;100803.22;5052285;28;20226;-85
2023/03/29 09:45:17;;;;;;;6.17;4.63;;;;;;;8.68;68.70;100807.53;5052479;28;20267;-84
2023/03/29 09:47:49;;;;;;;5.07;3.83;;;;;;;8.69;68.87;100806.59;5056926;28;20194;-83
2023/03/29 09:50:22;;;;;;;7.33;4.30;;;;;;;8.71;68.16;100812.69;5064078;28;20681;-86
2023/03/29 09:52:50;;;;;;;4.90;3.97;;;;;;;8.73;67.94;100807.28;5057259;28;20226;-84
2023/03/29 09:55:18;;;;;;;6.07;4.30;;;;;;;8.75;68.64;100806.28;5055833;28;20209;-84
2023/03/29 09:57:45;;;;;;;4.77;4.00;;;;;;;8.74;68.42;100801.03;5049630;28;20215;-83
2023/03/29 10:00:13;;;;;;;5.83;4.00;;;;;;;8.75;68.74;100800.97;5051987;28;20206;-84
2023/03/29 10:02:40;;;;;;;5.10;4.27;;;;;;;8.77;68.51;100801.75;5051473;28;20221;-83
2023/03/29 10:05:08;;;;;;;4.67;4.00;;;;;;;8.77;69.14;100803.53;5053158;28;20293;-84
2023/03/29 10:07:43;;;;;;;5.00;3.70;;;;;;;8.78;68.96;100794.63;5057581;28;20300;-81
2023/03/29 10:10:10;;;;;;;5.93;3.93;;;;;;;8.82;69.38;100788.19;5041420;28;20255;-82
2023/03/29 10:12:37;;;;;;;4.47;3.60;;;;;;;8.89;69.11;100785.13;5049041;28;20701;-83
2023/03/29 10:15:05;;;;;;;5.67;4.27;;;;;;;8.93;69.38;100783.19;5054174;28;20206;-83
2023/03/29 10:17:41;;;;;;;5.87;3.77;;;;;;;8.99;69.50;100780.16;5056913;28;20200;-83
2023/03/29 10:20:15;;;;;;;4.80;3.67;;;;;;;9.09;69.91;100781.41;5053757;28;20585;-83
2023/03/29 10:22:48;;;;;;;5.00;4.00;;;;;;;9.11;69.75;100778.66;5049516;28;20221;-83
2023/03/29 10:25:16;;;;;;;5.50;3.93;;;;;;;9.14;70.19;100774.00;5052794;28;20217;-83
2023/03/29 10:27:46;;;;;;;5.90;4.57;;;;;;;9.19;69.75;100781.72;5054802;28;20197;-83
2023/03/29 10:30:20;;;;;;;4.47;3.73;;;;;;;9.23;69.63;100776.16;5053047;28;20235;-83
2023/03/29 10:32:52;;;;;;;5.13;4.37;;;;;;;9.27;70.22;100780.38;5056537;28;20221;-83
2023/03/29 10:35:23;;;;;;;6.63;4.17;;;;;;;9.32;70.15;100780.97;5051129;28;20217;-83
2023/03/29 10:37:56;;;;;;;5.33;4.03;;;;;;;9.39;70.32;100777.03;5055546;28;20202;-83
2023/03/29 10:40:29;;;;;;;6.63;4.37;;;;;;;9.49;70.61;100777.38;5056546;28;20288;-84
2023/03/29 10:42:59;;;;;;;5.90;3.97;;;;;;;9.60;70.64;100782.06;5051198;28;20232;-84
2023/03/29 10:45:28;;;;;;;4.87;3.43;;;;;;;9.66;70.47;100785.25;5045870;28;20216;-83
2023/03/29 10:47:56;;;;;;;5.37;3.70;;;;;;;9.74;69.94;100764.38;5051591;28;20213;-82
2023/03/29 10:50:23;;;;;;;4.53;3.93;;;;;;;9.75;69.64;100765.22;5055463;28;20259;-82
2023/03/29 10:52:51;;;;;;;5.63;4.30;;;;;;;9.80;70.21;100759.66;5058665;28;20221;-83
2023/03/29 10:55:18;;;;;;;4.20;3.57;;;;;;;9.84;70.19;100762.06;5054182;28;20222;-83
2023/03/29 10:57:56;;;;;;;8.20;4.40;;;;;;;9.91;69.91;100767.84;5054345;28;20211;-84
2023/03/29 11:00:32;;;;;;;5.70;4.00;;;;;;;9.95;70.54;100756.09;5046970;28;20193;-83
2023/03/29 11:03:29;;;;;;;5.43;4.03;;;;;;;10.03;70.52;100759.16;5053454;28;20244;-83
2023/03/29 11:06:03;;;;;;;7.50;5.73;;;;;;;10.09;70.99;100750.78;5035955;28;20601;-83
2023/03/29 11:08:53;;;;;;;5.73;4.73;;;;;;;10.15;70.80;100753.09;5053838;28;20202;-83
2023/03/29 11:11:35;;;;;;;7.93;5.13;;;;;;;10.20;70.93;100751.06;5052126;28;20193;-84
2023/03/29 11:14:12;;;;;;;6.43;5.03;;;;;;;10.27;71.04;100735.56;5049396;28;20585;-85
2023/03/29 11:16:44;;;;;;;8.03;5.03;;;;;;;10.34;71.29;100736.91;5056044;28;20209;-84
2023/03/29 11:19:26;;;;;;;8.57;5.40;;;;;;;10.41;71.31;100739.09;5052451;28;20627;-83
2023/03/29 11:22:01;;;;;;;6.47;5.00;;;;;;;10.48;70.92;100733.41;5054759;28;20642;-83
2023/03/29 11:24:45;;;;;;;8.03;5.37;;;;;;;10.57;71.60;100727.50;5051854;28;20202;-85
2023/03/29 11:27:19;;;;;;;5.80;4.73;;;;;;;10.68;71.18;100730.34;5060632;28;20210;-84
2023/03/29 11:29:59;;;;;;;7.03;5.47;;;;;;;10.76;70.45;100725.38;5055535;28;20208;-84
2023/03/29 11:32:33;;;;;;;6.70;5.10;;;;;;;10.83;70.44;100721.41;5048572;28;20843;-85
2023/03/29 11:35:16;;;;;;;8.27;5.77;;;;;;;10.90;69.72;100714.75;5055697;28;20205;-85
2023/03/29 11:37:49;;;;;;;5.53;4.97;;;;;;;10.99;69.62;100715.94;5050165;28;20686;-85
2023/03/29 11:40:34;;;;;;;9.73;5.40;;;;;;;11.09;69.48;100720.59;5056065;28;20666;-84
2023/03/29 11:43:04;;;;;;;9.10;5.50;;;;;;;11.21;68.92;100726.09;5051980;28;20228;-84